sensor_id;sensor_type;location;lat;lon;timestamp;temperature;humidity
3298;DHT22;1661;53.572;10.174;2022-12-07T00:01:40;4.60;90.00
3298;DHT22;1661;53.572;10.174;2022-12-07T00:04:09;4.70;90.00
3298;DHT22;1661;53.572;10.174;2022-12-07T00:06:38;4.70;90.00
3298;DHT22;1661;53.572;10.174;2022-12-07T00:09:05;4.80;90.00
3298;DHT22;1661;53.572;10.174;2022-12-07T00:11:33;4.80;90.00
3298;DHT22;1661;53.572;10.174;2022-12-07T00:14:05;4.80;90.40
3298;DHT22;1661;53.572;10.174;2022-12-07T00:16:33;4.80;91.00
3298;DHT22;1661;53.572;10.174;2022-12-07T00:19:01;4.80;91.30
3298;DHT22;1661;53.572;10.174;2022-12-07T00:21:29;4.90;91.40
3298;DHT22;1661;53.572;10.174;2022-12-07T00:23:57;4.90;91.40
3298;DHT22;1661;53.572;10.174;2022-12-07T00:26:27;5.00;91.50
3298;DHT22;1661;53.572;10.174;2022-12-07T00:28:56;5.00;91.50
3298;DHT22;1661;53.572;10.174;2022-12-07T00:31:27;5.00;91.30
3298;DHT22;1661;53.572;10.174;2022-12-07T00:33:54;5.10;91.20
3298;DHT22;1661;53.572;10.174;2022-12-07T00:36:23;5.10;91.20
3298;DHT22;1661;53.572;10.174;2022-12-07T00:38:51;5.10;91.30
3298;DHT22;1661;53.572;10.174;2022-12-07T00:41:19;5.10;91.20
3298;DHT22;1661;53.572;10.174;2022-12-07T00:43:47;5.10;91.30
3298;DHT22;1661;53.572;10.174;2022-12-07T00:46:15;5.10;91.50
3298;DHT22;1661;53.572;10.174;2022-12-07T00:48:43;5.10;91.70
3298;DHT22;1661;53.572;10.174;2022-12-07T00:51:12;5.00;91.80
3298;DHT22;1661;53.572;10.174;2022-12-07T00:53:39;5.00;92.00
3298;DHT22;1661;53.572;10.174;2022-12-07T00:56:07;5.10;92.10
3298;DHT22;1661;53.572;10.174;2022-12-07T00:58:34;5.00;92.10
3298;DHT22;1661;53.572;10.174;2022-12-07T01:01:01;5.00;92.30
3298;DHT22;1661;53.572;10.174;2022-12-07T01:03:28;5.10;92.40
3298;DHT22;1661;53.572;10.174;2022-12-07T01:05:57;5.10;92.30
3298;DHT22;1661;53.572;10.174;2022-12-07T01:08:25;5.00;92.40
3298;DHT22;1661;53.572;10.174;2022-12-07T01:10:58;5.00;92.50
3298;DHT22;1661;53.572;10.174;2022-12-07T01:13:26;5.00;92.70
3298;DHT22;1661;53.572;10.174;2022-12-07T01:15:56;5.00;92.70
3298;DHT22;1661;53.572;10.174;2022-12-07T01:18:23;5.00;92.80
3298;DHT22;1661;53.572;10.174;2022-12-07T01:20:59;5.00;92.80
3298;DHT22;1661;53.572;10.174;2022-12-07T01:23:26;5.00;93.00
3298;DHT22;1661;53.572;10.174;2022-12-07T01:25:56;4.90;93.10
3298;DHT22;1661;53.572;10.174;2022-12-07T01:28:24;5.00;93.30
3298;DHT22;1661;53.572;10.174;2022-12-07T01:30:58;5.00;93.10
3298;DHT22;1661;53.572;10.174;2022-12-07T01:33:27;4.90;93.40
3298;DHT22;1661;53.572;10.174;2022-12-07T01:35:54;4.90;93.50
3298;DHT22;1661;53.572;10.174;2022-12-07T01:38:22;5.00;93.40
3298;DHT22;1661;53.572;10.174;2022-12-07T01:40:54;5.00;93.10
3298;DHT22;1661;53.572;10.174;2022-12-07T01:43:23;5.00;93.20
3298;DHT22;1661;53.572;10.174;2022-12-07T01:45:50;5.10;93.10
3298;DHT22;1661;53.572;10.174;2022-12-07T01:48:20;5.10;92.90
3298;DHT22;1661;53.572;10.174;2022-12-07T01:50:49;5.00;92.90
3298;DHT22;1661;53.572;10.174;2022-12-07T01:53:19;4.90;92.80
3298;DHT22;1661;53.572;10.174;2022-12-07T01:55:51;4.90;93.00
3298;DHT22;1661;53.572;10.174;2022-12-07T01:58:18;5.00;93.00
3298;DHT22;1661;53.572;10.174;2022-12-07T02:00:46;5.00;92.70
3298;DHT22;1661;53.572;10.174;2022-12-07T02:03:18;5.00;92.70
3298;DHT22;1661;53.572;10.174;2022-12-07T02:05:46;4.90;92.70
3298;DHT22;1661;53.572;10.174;2022-12-07T02:08:13;5.00;92.70
3298;DHT22;1661;53.572;10.174;2022-12-07T02:10:41;4.90;92.50
3298;DHT22;1661;53.572;10.174;2022-12-07T02:13:12;4.80;92.70
3298;DHT22;1661;53.572;10.174;2022-12-07T02:16:05;4.80;92.60
3298;DHT22;1661;53.572;10.174;2022-12-07T02:18:48;4.90;92.70
3298;DHT22;1661;53.572;10.174;2022-12-07T02:21:20;4.80;92.60
3298;DHT22;1661;53.572;10.174;2022-12-07T02:24:19;4.80;92.60
3298;DHT22;1661;53.572;10.174;2022-12-07T02:27:01;4.80;92.50
3298;DHT22;1661;53.572;10.174;2022-12-07T02:29:35;4.80;92.20
3298;DHT22;1661;53.572;10.174;2022-12-07T02:32:10;4.70;92.40
3298;DHT22;1661;53.572;10.174;2022-12-07T02:34:46;4.70;92.50
3298;DHT22;1661;53.572;10.174;2022-12-07T02:37:21;4.70;92.30
3298;DHT22;1661;53.572;10.174;2022-12-07T02:39:55;4.50;92.50
3298;DHT22;1661;53.572;10.174;2022-12-07T02:42:28;4.50;92.60
3298;DHT22;1661;53.572;10.174;2022-12-07T02:45:00;4.50;92.60
3298;DHT22;1661;53.572;10.174;2022-12-07T02:47:28;4.50;92.90
3298;DHT22;1661;53.572;10.174;2022-12-07T02:49:56;4.60;92.80
3298;DHT22;1661;53.572;10.174;2022-12-07T02:52:23;4.60;92.70
3298;DHT22;1661;53.572;10.174;2022-12-07T02:54:49;4.60;92.50
3298;DHT22;1661;53.572;10.174;2022-12-07T02:57:35;4.70;92.50
3298;DHT22;1661;53.572;10.174;2022-12-07T03:00:08;4.60;92.30
3298;DHT22;1661;53.572;10.174;2022-12-07T03:02:42;4.70;92.40
3298;DHT22;1661;53.572;10.174;2022-12-07T03:05:25;4.80;92.10
3298;DHT22;1661;53.572;10.174;2022-12-07T03:07:59;4.70;91.50
3298;DHT22;1661;53.572;10.174;2022-12-07T03:10:34;4.60;91.40
3298;DHT22;1661;53.572;10.174;2022-12-07T03:13:05;4.60;91.30
3298;DHT22;1661;53.572;10.174;2022-12-07T03:15:40;4.70;91.10
3298;DHT22;1661;53.572;10.174;2022-12-07T03:18:11;4.60;90.50
3298;DHT22;1661;53.572;10.174;2022-12-07T03:20:40;4.50;90.70
3298;DHT22;1661;53.572;10.174;2022-12-07T03:23:09;4.30;91.10
3298;DHT22;1661;53.572;10.174;2022-12-07T03:25:40;4.30;91.20
3298;DHT22;1661;53.572;10.174;2022-12-07T03:28:08;4.40;91.20
3298;DHT22;1661;53.572;10.174;2022-12-07T03:30:44;4.30;91.10
3298;DHT22;1661;53.572;10.174;2022-12-07T03:33:15;4.30;91.00
3298;DHT22;1661;53.572;10.174;2022-12-07T03:35:51;4.30;91.00
3298;DHT22;1661;53.572;10.174;2022-12-07T03:38:21;4.40;91.00
3298;DHT22;1661;53.572;10.174;2022-12-07T03:40:54;4.40;90.70
3298;DHT22;1661;53.572;10.174;2022-12-07T03:43:21;4.30;90.20
3298;DHT22;1661;53.572;10.174;2022-12-07T03:45:59;4.30;90.40
3298;DHT22;1661;53.572;10.174;2022-12-07T03:48:34;4.30;90.40
3298;DHT22;1661;53.572;10.174;2022-12-07T03:51:09;4.10;90.60
3298;DHT22;1661;53.572;10.174;2022-12-07T03:53:43;4.10;90.50
3298;DHT22;1661;53.572;10.174;2022-12-07T03:56:12;4.10;90.60
3298;DHT22;1661;53.572;10.174;2022-12-07T03:58:40;4.00;90.60
3298;DHT22;1661;53.572;10.174;2022-12-07T04:01:08;4.00;90.80
3298;DHT22;1661;53.572;10.174;2022-12-07T04:03:35;4.00;90.40
3298;DHT22;1661;53.572;10.174;2022-12-07T04:06:02;4.00;90.40
3298;DHT22;1661;53.572;10.174;2022-12-07T04:08:29;4.00;90.40
3298;DHT22;1661;53.572;10.174;2022-12-07T04:10:56;4.10;90.30
3298;DHT22;1661;53.572;10.174;2022-12-07T04:13:23;4.10;90.10
3298;DHT22;1661;53.572;10.174;2022-12-07T04:15:50;4.10;89.90
3298;DHT22;1661;53.572;10.174;2022-12-07T04:18:18;4.10;89.70
3298;DHT22;1661;53.572;10.174;2022-12-07T04:20:46;4.10;89.60
3298;DHT22;1661;53.572;10.174;2022-12-07T04:23:13;4.10;89.40
3298;DHT22;1661;53.572;10.174;2022-12-07T04:25:40;4.10;89.30
3298;DHT22;1661;53.572;10.174;2022-12-07T04:28:07;4.20;89.00
3298;DHT22;1661;53.572;10.174;2022-12-07T04:30:33;4.10;88.90
3298;DHT22;1661;53.572;10.174;2022-12-07T04:33:00;4.00;89.00
3298;DHT22;1661;53.572;10.174;2022-12-07T04:35:28;4.00;89.00
3298;DHT22;1661;53.572;10.174;2022-12-07T04:37:55;4.00;88.90
3298;DHT22;1661;53.572;10.174;2022-12-07T04:40:22;4.00;88.80
3298;DHT22;1661;53.572;10.174;2022-12-07T04:42:49;4.00;89.00
3298;DHT22;1661;53.572;10.174;2022-12-07T04:45:16;4.00;89.00
3298;DHT22;1661;53.572;10.174;2022-12-07T04:47:43;4.00;88.80
3298;DHT22;1661;53.572;10.174;2022-12-07T04:50:10;4.00;88.80
3298;DHT22;1661;53.572;10.174;2022-12-07T04:52:38;4.00;88.70
3298;DHT22;1661;53.572;10.174;2022-12-07T04:55:05;3.90;88.70
3298;DHT22;1661;53.572;10.174;2022-12-07T04:57:35;3.80;88.90
3298;DHT22;1661;53.572;10.174;2022-12-07T05:00:07;3.90;88.90
3298;DHT22;1661;53.572;10.174;2022-12-07T05:02:34;3.90;88.80
3298;DHT22;1661;53.572;10.174;2022-12-07T05:05:00;3.90;88.70
3298;DHT22;1661;53.572;10.174;2022-12-07T05:07:27;3.80;88.80
3298;DHT22;1661;53.572;10.174;2022-12-07T05:09:55;3.90;88.80
3298;DHT22;1661;53.572;10.174;2022-12-07T05:12:22;3.90;88.70
3298;DHT22;1661;53.572;10.174;2022-12-07T05:14:49;3.90;88.60
3298;DHT22;1661;53.572;10.174;2022-12-07T05:17:16;3.80;88.50
3298;DHT22;1661;53.572;10.174;2022-12-07T05:19:43;3.80;88.60
3298;DHT22;1661;53.572;10.174;2022-12-07T05:22:09;3.80;88.50
3298;DHT22;1661;53.572;10.174;2022-12-07T05:24:36;3.70;88.60
3298;DHT22;1661;53.572;10.174;2022-12-07T05:27:04;3.80;88.70
3298;DHT22;1661;53.572;10.174;2022-12-07T05:29:31;3.80;88.60
3298;DHT22;1661;53.572;10.174;2022-12-07T05:31:58;3.80;88.50
3298;DHT22;1661;53.572;10.174;2022-12-07T05:34:25;3.80;88.40
3298;DHT22;1661;53.572;10.174;2022-12-07T05:36:52;3.80;88.30
3298;DHT22;1661;53.572;10.174;2022-12-07T05:39:19;3.80;88.20
3298;DHT22;1661;53.572;10.174;2022-12-07T05:41:45;3.80;88.20
3298;DHT22;1661;53.572;10.174;2022-12-07T05:44:31;3.80;88.10
3298;DHT22;1661;53.572;10.174;2022-12-07T05:46:58;3.80;88.00
3298;DHT22;1661;53.572;10.174;2022-12-07T05:49:24;3.80;88.00
3298;DHT22;1661;53.572;10.174;2022-12-07T05:51:52;3.80;87.90
3298;DHT22;1661;53.572;10.174;2022-12-07T05:54:19;3.70;88.10
3298;DHT22;1661;53.572;10.174;2022-12-07T05:56:46;3.70;88.30
3298;DHT22;1661;53.572;10.174;2022-12-07T05:59:13;3.70;88.40
3298;DHT22;1661;53.572;10.174;2022-12-07T06:01:49;3.70;88.40
3298;DHT22;1661;53.572;10.174;2022-12-07T06:04:16;3.70;88.40
3298;DHT22;1661;53.572;10.174;2022-12-07T06:06:43;3.70;88.40
3298;DHT22;1661;53.572;10.174;2022-12-07T06:09:10;3.60;88.30
3298;DHT22;1661;53.572;10.174;2022-12-07T06:11:38;3.60;88.40
3298;DHT22;1661;53.572;10.174;2022-12-07T06:14:23;3.60;88.40
3298;DHT22;1661;53.572;10.174;2022-12-07T06:16:51;3.60;88.40
3298;DHT22;1661;53.572;10.174;2022-12-07T06:19:18;3.60;88.40
3298;DHT22;1661;53.572;10.174;2022-12-07T06:21:45;3.70;88.20
3298;DHT22;1661;53.572;10.174;2022-12-07T06:24:13;3.70;88.00
3298;DHT22;1661;53.572;10.174;2022-12-07T06:26:41;3.70;87.90
3298;DHT22;1661;53.572;10.174;2022-12-07T06:29:08;3.70;87.90
3298;DHT22;1661;53.572;10.174;2022-12-07T06:31:36;3.70;87.80
3298;DHT22;1661;53.572;10.174;2022-12-07T06:34:06;3.70;87.80
3298;DHT22;1661;53.572;10.174;2022-12-07T06:36:34;3.70;87.90
3298;DHT22;1661;53.572;10.174;2022-12-07T06:39:01;3.70;88.00
3298;DHT22;1661;53.572;10.174;2022-12-07T06:41:28;3.70;88.00
3298;DHT22;1661;53.572;10.174;2022-12-07T06:43:55;3.70;88.00
3298;DHT22;1661;53.572;10.174;2022-12-07T06:46:22;3.70;88.00
3298;DHT22;1661;53.572;10.174;2022-12-07T06:48:50;3.70;87.90
3298;DHT22;1661;53.572;10.174;2022-12-07T06:51:18;3.70;87.70
3298;DHT22;1661;53.572;10.174;2022-12-07T06:53:45;3.70;87.70
3298;DHT22;1661;53.572;10.174;2022-12-07T06:56:12;3.70;87.80
3298;DHT22;1661;53.572;10.174;2022-12-07T06:58:39;3.70;87.90
3298;DHT22;1661;53.572;10.174;2022-12-07T07:01:09;3.60;88.00
3298;DHT22;1661;53.572;10.174;2022-12-07T07:03:35;3.60;88.30
3298;DHT22;1661;53.572;10.174;2022-12-07T07:06:02;3.60;88.30
3298;DHT22;1661;53.572;10.174;2022-12-07T07:08:31;3.70;88.50
3298;DHT22;1661;53.572;10.174;2022-12-07T07:10:57;3.70;88.50
3298;DHT22;1661;53.572;10.174;2022-12-07T07:13:24;3.70;88.50
3298;DHT22;1661;53.572;10.174;2022-12-07T07:15:51;3.70;88.30
3298;DHT22;1661;53.572;10.174;2022-12-07T07:18:18;3.80;88.20
3298;DHT22;1661;53.572;10.174;2022-12-07T07:20:45;3.80;88.10
3298;DHT22;1661;53.572;10.174;2022-12-07T07:23:12;3.80;88.20
3298;DHT22;1661;53.572;10.174;2022-12-07T07:25:40;3.80;88.30
3298;DHT22;1661;53.572;10.174;2022-12-07T07:28:07;3.80;88.40
3298;DHT22;1661;53.572;10.174;2022-12-07T07:30:33;3.80;88.50
3298;DHT22;1661;53.572;10.174;2022-12-07T07:33:01;3.80;88.60
3298;DHT22;1661;53.572;10.174;2022-12-07T07:35:30;3.80;88.60
3298;DHT22;1661;53.572;10.174;2022-12-07T07:37:57;3.80;88.70
3298;DHT22;1661;53.572;10.174;2022-12-07T07:40:25;3.80;88.80
3298;DHT22;1661;53.572;10.174;2022-12-07T07:42:54;3.80;88.80
3298;DHT22;1661;53.572;10.174;2022-12-07T07:45:22;3.80;89.00
3298;DHT22;1661;53.572;10.174;2022-12-07T07:47:50;3.80;89.20
3298;DHT22;1661;53.572;10.174;2022-12-07T07:50:17;3.80;89.30
3298;DHT22;1661;53.572;10.174;2022-12-07T07:52:45;3.80;89.30
3298;DHT22;1661;53.572;10.174;2022-12-07T07:55:12;3.80;89.40
3298;DHT22;1661;53.572;10.174;2022-12-07T07:57:40;3.90;89.50
3298;DHT22;1661;53.572;10.174;2022-12-07T08:00:11;3.90;89.60
3298;DHT22;1661;53.572;10.174;2022-12-07T08:02:39;3.90;89.50
3298;DHT22;1661;53.572;10.174;2022-12-07T08:05:07;3.90;89.40
3298;DHT22;1661;53.572;10.174;2022-12-07T08:07:34;3.90;89.30
3298;DHT22;1661;53.572;10.174;2022-12-07T08:10:00;3.90;89.40
3298;DHT22;1661;53.572;10.174;2022-12-07T08:12:27;3.90;89.50
3298;DHT22;1661;53.572;10.174;2022-12-07T08:14:54;4.00;89.50
3298;DHT22;1661;53.572;10.174;2022-12-07T08:17:22;4.00;89.30
3298;DHT22;1661;53.572;10.174;2022-12-07T08:19:49;4.00;89.30
3298;DHT22;1661;53.572;10.174;2022-12-07T08:22:16;4.00;89.30
3298;DHT22;1661;53.572;10.174;2022-12-07T08:24:45;4.00;89.30
3298;DHT22;1661;53.572;10.174;2022-12-07T08:27:12;4.00;89.10
3298;DHT22;1661;53.572;10.174;2022-12-07T08:29:39;4.00;89.50
3298;DHT22;1661;53.572;10.174;2022-12-07T08:32:07;4.10;89.50
3298;DHT22;1661;53.572;10.174;2022-12-07T08:34:35;4.10;89.50
3298;DHT22;1661;53.572;10.174;2022-12-07T08:37:02;4.10;89.40
3298;DHT22;1661;53.572;10.174;2022-12-07T08:39:29;4.20;89.30
3298;DHT22;1661;53.572;10.174;2022-12-07T08:41:56;4.20;89.10
3298;DHT22;1661;53.572;10.174;2022-12-07T08:44:22;4.30;89.00
3298;DHT22;1661;53.572;10.174;2022-12-07T08:46:52;4.30;88.80
3298;DHT22;1661;53.572;10.174;2022-12-07T08:49:22;4.40;88.60
3298;DHT22;1661;53.572;10.174;2022-12-07T08:51:52;4.40;88.60
3298;DHT22;1661;53.572;10.174;2022-12-07T08:54:19;4.40;88.60
3298;DHT22;1661;53.572;10.174;2022-12-07T08:56:47;4.40;88.80
3298;DHT22;1661;53.572;10.174;2022-12-07T08:59:17;4.40;88.80
3298;DHT22;1661;53.572;10.174;2022-12-07T09:01:44;4.40;88.90
3298;DHT22;1661;53.572;10.174;2022-12-07T09:04:11;4.50;88.90
3298;DHT22;1661;53.572;10.174;2022-12-07T09:06:38;4.50;88.90
3298;DHT22;1661;53.572;10.174;2022-12-07T09:09:07;4.50;88.90
3298;DHT22;1661;53.572;10.174;2022-12-07T09:11:34;4.50;88.90
3298;DHT22;1661;53.572;10.174;2022-12-07T09:14:01;4.60;88.90
3298;DHT22;1661;53.572;10.174;2022-12-07T09:16:28;4.70;88.90
3298;DHT22;1661;53.572;10.174;2022-12-07T09:18:55;4.70;88.80
3298;DHT22;1661;53.572;10.174;2022-12-07T09:21:22;4.80;88.70
3298;DHT22;1661;53.572;10.174;2022-12-07T09:23:48;4.70;88.60
3298;DHT22;1661;53.572;10.174;2022-12-07T09:26:16;4.80;88.60
3298;DHT22;1661;53.572;10.174;2022-12-07T09:28:43;4.80;88.70
3298;DHT22;1661;53.572;10.174;2022-12-07T09:31:10;4.80;88.60
3298;DHT22;1661;53.572;10.174;2022-12-07T09:33:37;4.80;88.60
3298;DHT22;1661;53.572;10.174;2022-12-07T09:36:04;4.80;88.50
3298;DHT22;1661;53.572;10.174;2022-12-07T09:38:31;4.90;88.70
3298;DHT22;1661;53.572;10.174;2022-12-07T09:41:04;4.90;88.60
3298;DHT22;1661;53.572;10.174;2022-12-07T09:43:35;4.90;88.80
3298;DHT22;1661;53.572;10.174;2022-12-07T09:46:03;5.00;88.60
3298;DHT22;1661;53.572;10.174;2022-12-07T09:48:32;5.00;88.40
3298;DHT22;1661;53.572;10.174;2022-12-07T09:51:01;5.00;88.40
3298;DHT22;1661;53.572;10.174;2022-12-07T09:53:30;5.10;88.60
3298;DHT22;1661;53.572;10.174;2022-12-07T09:55:59;5.20;88.70
3298;DHT22;1661;53.572;10.174;2022-12-07T09:58:29;5.10;88.20
3298;DHT22;1661;53.572;10.174;2022-12-07T10:01:00;5.00;88.00
3298;DHT22;1661;53.572;10.174;2022-12-07T10:03:27;5.00;88.30
3298;DHT22;1661;53.572;10.174;2022-12-07T10:05:55;5.10;88.30
3298;DHT22;1661;53.572;10.174;2022-12-07T10:08:22;5.10;88.40
3298;DHT22;1661;53.572;10.174;2022-12-07T10:10:53;5.20;88.60
3298;DHT22;1661;53.572;10.174;2022-12-07T10:13:22;5.20;88.40
3298;DHT22;1661;53.572;10.174;2022-12-07T10:16:04;5.30;88.30
3298;DHT22;1661;53.572;10.174;2022-12-07T10:18:32;5.40;88.00
3298;DHT22;1661;53.572;10.174;2022-12-07T10:21:05;5.40;87.70
3298;DHT22;1661;53.572;10.174;2022-12-07T10:23:34;5.40;87.50
3298;DHT22;1661;53.572;10.174;2022-12-07T10:26:20;5.40;87.60
3298;DHT22;1661;53.572;10.174;2022-12-07T10:28:47;5.60;87.80
3298;DHT22;1661;53.572;10.174;2022-12-07T10:31:18;5.60;87.50
3298;DHT22;1661;53.572;10.174;2022-12-07T10:33:51;5.70;87.40
3298;DHT22;1661;53.572;10.174;2022-12-07T10:36:22;5.80;87.00
3298;DHT22;1661;53.572;10.174;2022-12-07T10:38:50;5.90;86.70
3298;DHT22;1661;53.572;10.174;2022-12-07T10:41:18;5.90;86.10
3298;DHT22;1661;53.572;10.174;2022-12-07T10:43:50;5.80;85.30
3298;DHT22;1661;53.572;10.174;2022-12-07T10:49:59;5.90;84.90
3298;DHT22;1661;53.572;10.174;2022-12-07T10:52:46;5.90;84.30
3298;DHT22;1661;53.572;10.174;2022-12-07T10:55:21;5.90;84.20
3298;DHT22;1661;53.572;10.174;2022-12-07T10:58:11;5.90;83.60
3298;DHT22;1661;53.572;10.174;2022-12-07T11:00:44;5.90;83.20
3298;DHT22;1661;53.572;10.174;2022-12-07T11:03:32;5.90;83.50
3298;DHT22;1661;53.572;10.174;2022-12-07T11:06:13;5.80;83.50
3298;DHT22;1661;53.572;10.174;2022-12-07T11:08:53;5.70;83.80
3298;DHT22;1661;53.572;10.174;2022-12-07T11:11:27;5.70;83.50
3298;DHT22;1661;53.572;10.174;2022-12-07T11:14:05;5.70;83.30
3298;DHT22;1661;53.572;10.174;2022-12-07T11:16:58;5.80;83.70
3298;DHT22;1661;53.572;10.174;2022-12-07T11:19:47;5.90;83.60
3298;DHT22;1661;53.572;10.174;2022-12-07T11:22:23;5.90;82.70
3298;DHT22;1661;53.572;10.174;2022-12-07T11:24:57;5.90;83.10
3298;DHT22;1661;53.572;10.174;2022-12-07T11:27:34;5.90;82.50
3298;DHT22;1661;53.572;10.174;2022-12-07T11:30:14;5.80;82.50
3298;DHT22;1661;53.572;10.174;2022-12-07T11:33:00;5.90;82.60
3298;DHT22;1661;53.572;10.174;2022-12-07T11:35:38;5.80;82.70
3298;DHT22;1661;53.572;10.174;2022-12-07T11:38:12;5.80;82.40
3298;DHT22;1661;53.572;10.174;2022-12-07T11:40:43;5.80;82.70
3298;DHT22;1661;53.572;10.174;2022-12-07T11:43:18;5.90;82.20
3298;DHT22;1661;53.572;10.174;2022-12-07T11:45:50;5.90;82.40
3298;DHT22;1661;53.572;10.174;2022-12-07T11:48:24;5.90;81.90
3298;DHT22;1661;53.572;10.174;2022-12-07T11:50:53;5.90;82.10
3298;DHT22;1661;53.572;10.174;2022-12-07T11:53:26;6.00;81.60
3298;DHT22;1661;53.572;10.174;2022-12-07T11:55:57;6.10;81.40
3298;DHT22;1661;53.572;10.174;2022-12-07T11:58:44;6.10;80.90
3298;DHT22;1661;53.572;10.174;2022-12-07T12:01:26;6.10;80.40
3298;DHT22;1661;53.572;10.174;2022-12-07T12:04:00;6.10;80.10
3298;DHT22;1661;53.572;10.174;2022-12-07T12:06:28;6.10;79.70
3298;DHT22;1661;53.572;10.174;2022-12-07T12:09:00;6.00;79.20
3298;DHT22;1661;53.572;10.174;2022-12-07T12:11:43;6.00;79.60
3298;DHT22;1661;53.572;10.174;2022-12-07T12:14:33;6.10;79.70
3298;DHT22;1661;53.572;10.174;2022-12-07T12:20:01;6.20;78.50
3298;DHT22;1661;53.572;10.174;2022-12-07T12:22:34;6.20;78.20
3298;DHT22;1661;53.572;10.174;2022-12-07T12:25:06;6.30;77.60
3298;DHT22;1661;53.572;10.174;2022-12-07T12:27:36;6.30;77.50
3298;DHT22;1661;53.572;10.174;2022-12-07T12:30:07;6.40;77.20
3298;DHT22;1661;53.572;10.174;2022-12-07T12:32:38;6.50;76.80
3298;DHT22;1661;53.572;10.174;2022-12-07T12:35:27;6.40;75.10
3298;DHT22;1661;53.572;10.174;2022-12-07T12:37:54;6.40;75.80
3298;DHT22;1661;53.572;10.174;2022-12-07T12:40:44;6.20;74.30
3298;DHT22;1661;53.572;10.174;2022-12-07T12:43:43;6.20;75.40
3298;DHT22;1661;53.572;10.174;2022-12-07T12:46:36;6.00;75.00
3298;DHT22;1661;53.572;10.174;2022-12-07T12:58:35;6.00;72.70
3298;DHT22;1661;53.572;10.174;2022-12-07T13:04:18;6.00;75.30
3298;DHT22;1661;53.572;10.174;2022-12-07T13:06:48;6.00;74.20
3298;DHT22;1661;53.572;10.174;2022-12-07T13:09:21;6.00;73.40
3298;DHT22;1661;53.572;10.174;2022-12-07T13:11:54;6.00;74.30
3298;DHT22;1661;53.572;10.174;2022-12-07T13:14:55;6.10;74.30
3298;DHT22;1661;53.572;10.174;2022-12-07T13:18:01;6.10;73.90
3298;DHT22;1661;53.572;10.174;2022-12-07T13:20:48;6.10;72.30
3298;DHT22;1661;53.572;10.174;2022-12-07T13:23:22;6.20;73.10
3298;DHT22;1661;53.572;10.174;2022-12-07T13:26:14;6.20;72.80
3298;DHT22;1661;53.572;10.174;2022-12-07T13:28:43;5.90;71.60
3298;DHT22;1661;53.572;10.174;2022-12-07T13:31:33;5.90;71.70
3298;DHT22;1661;53.572;10.174;2022-12-07T13:34:02;5.70;71.20
3298;DHT22;1661;53.572;10.174;2022-12-07T13:36:31;5.70;72.00
3298;DHT22;1661;53.572;10.174;2022-12-07T13:39:16;5.80;72.70
3298;DHT22;1661;53.572;10.174;2022-12-07T13:41:44;5.80;71.20
3298;DHT22;1661;53.572;10.174;2022-12-07T13:44:13;5.70;70.50
3298;DHT22;1661;53.572;10.174;2022-12-07T13:46:47;5.60;71.00
3298;DHT22;1661;53.572;10.174;2022-12-07T13:49:21;5.60;71.40
3298;DHT22;1661;53.572;10.174;2022-12-07T13:51:48;5.70;72.60
3298;DHT22;1661;53.572;10.174;2022-12-07T13:54:15;5.90;73.00
3298;DHT22;1661;53.572;10.174;2022-12-07T13:56:42;6.00;71.40
3298;DHT22;1661;53.572;10.174;2022-12-07T13:59:20;5.90;69.90
3298;DHT22;1661;53.572;10.174;2022-12-07T14:01:50;5.90;70.20
3298;DHT22;1661;53.572;10.174;2022-12-07T14:04:19;5.50;69.40
3298;DHT22;1661;53.572;10.174;2022-12-07T14:06:50;5.40;68.70
3298;DHT22;1661;53.572;10.174;2022-12-07T14:09:19;5.20;69.00
3298;DHT22;1661;53.572;10.174;2022-12-07T14:11:48;5.20;70.40
3298;DHT22;1661;53.572;10.174;2022-12-07T14:14:19;5.30;70.90
3298;DHT22;1661;53.572;10.174;2022-12-07T14:16:58;5.20;68.60
3298;DHT22;1661;53.572;10.174;2022-12-07T14:19:43;5.20;68.30
3298;DHT22;1661;53.572;10.174;2022-12-07T14:22:20;5.20;68.70
3298;DHT22;1661;53.572;10.174;2022-12-07T14:24:48;5.10;68.80
3298;DHT22;1661;53.572;10.174;2022-12-07T14:27:19;5.00;69.60
3298;DHT22;1661;53.572;10.174;2022-12-07T14:29:46;5.10;70.00
3298;DHT22;1661;53.572;10.174;2022-12-07T14:32:20;5.20;69.00
3298;DHT22;1661;53.572;10.174;2022-12-07T14:34:59;5.10;68.80
3298;DHT22;1661;53.572;10.174;2022-12-07T14:37:27;5.00;69.40
3298;DHT22;1661;53.572;10.174;2022-12-07T14:39:55;4.90;69.00
3298;DHT22;1661;53.572;10.174;2022-12-07T14:42:24;4.90;69.20
3298;DHT22;1661;53.572;10.174;2022-12-07T14:44:53;5.00;70.30
3298;DHT22;1661;53.572;10.174;2022-12-07T14:47:21;4.90;70.80
3298;DHT22;1661;53.572;10.174;2022-12-07T14:49:48;4.80;68.90
3298;DHT22;1661;53.572;10.174;2022-12-07T14:52:18;4.50;69.60
3298;DHT22;1661;53.572;10.174;2022-12-07T14:54:45;4.40;69.80
3298;DHT22;1661;53.572;10.174;2022-12-07T14:57:12;4.40;70.10
3298;DHT22;1661;53.572;10.174;2022-12-07T14:59:39;4.50;70.30
3298;DHT22;1661;53.572;10.174;2022-12-07T15:02:08;4.40;69.90
3298;DHT22;1661;53.572;10.174;2022-12-07T15:04:37;4.40;70.00
3298;DHT22;1661;53.572;10.174;2022-12-07T15:07:06;4.40;70.00
3298;DHT22;1661;53.572;10.174;2022-12-07T15:09:35;4.40;70.90
3298;DHT22;1661;53.572;10.174;2022-12-07T15:12:02;4.60;71.30
3298;DHT22;1661;53.572;10.174;2022-12-07T15:14:29;4.60;70.40
3298;DHT22;1661;53.572;10.174;2022-12-07T15:16:56;4.60;70.50
3298;DHT22;1661;53.572;10.174;2022-12-07T15:19:24;4.60;70.60
3298;DHT22;1661;53.572;10.174;2022-12-07T15:21:53;4.60;71.60
3298;DHT22;1661;53.572;10.174;2022-12-07T15:24:20;4.60;70.70
3298;DHT22;1661;53.572;10.174;2022-12-07T15:26:47;4.70;70.80
3298;DHT22;1661;53.572;10.174;2022-12-07T15:29:13;4.40;69.30
3298;DHT22;1661;53.572;10.174;2022-12-07T15:31:42;4.40;70.60
3298;DHT22;1661;53.572;10.174;2022-12-07T15:34:09;4.50;71.80
3298;DHT22;1661;53.572;10.174;2022-12-07T15:36:36;4.50;70.50
3298;DHT22;1661;53.572;10.174;2022-12-07T15:39:04;4.50;70.30
3298;DHT22;1661;53.572;10.174;2022-12-07T15:41:31;4.40;70.30
3298;DHT22;1661;53.572;10.174;2022-12-07T15:43:58;4.50;71.40
3298;DHT22;1661;53.572;10.174;2022-12-07T15:46:43;4.50;72.10
3298;DHT22;1661;53.572;10.174;2022-12-07T15:49:12;4.50;72.40
3298;DHT22;1661;53.572;10.174;2022-12-07T15:51:40;4.50;72.80
3298;DHT22;1661;53.572;10.174;2022-12-07T15:54:16;4.50;73.40
3298;DHT22;1661;53.572;10.174;2022-12-07T15:56:44;4.60;73.80
3298;DHT22;1661;53.572;10.174;2022-12-07T15:59:11;4.60;73.60
3298;DHT22;1661;53.572;10.174;2022-12-07T16:01:37;4.60;73.10
3298;DHT22;1661;53.572;10.174;2022-12-07T16:04:04;4.50;72.80
3298;DHT22;1661;53.572;10.174;2022-12-07T16:06:31;4.50;72.50
3298;DHT22;1661;53.572;10.174;2022-12-07T16:08:58;4.50;72.60
3298;DHT22;1661;53.572;10.174;2022-12-07T16:11:27;4.40;71.90
3298;DHT22;1661;53.572;10.174;2022-12-07T16:13:54;4.40;72.60
3298;DHT22;1661;53.572;10.174;2022-12-07T16:16:21;4.30;71.40
3298;DHT22;1661;53.572;10.174;2022-12-07T16:18:49;4.30;72.10
3298;DHT22;1661;53.572;10.174;2022-12-07T16:21:17;4.30;72.50
3298;DHT22;1661;53.572;10.174;2022-12-07T16:23:44;4.30;72.80
3298;DHT22;1661;53.572;10.174;2022-12-07T16:26:13;4.30;73.60
3298;DHT22;1661;53.572;10.174;2022-12-07T16:28:41;4.30;73.30
3298;DHT22;1661;53.572;10.174;2022-12-07T16:31:10;4.30;73.40
3298;DHT22;1661;53.572;10.174;2022-12-07T16:33:39;4.30;73.40
3298;DHT22;1661;53.572;10.174;2022-12-07T16:36:08;4.20;73.30
3298;DHT22;1661;53.572;10.174;2022-12-07T16:38:36;4.20;73.40
3298;DHT22;1661;53.572;10.174;2022-12-07T16:41:04;4.20;73.80
3298;DHT22;1661;53.572;10.174;2022-12-07T16:43:32;4.10;73.50